GLD1620 SBFZ-SBJU
Flight info
| Callsign | GLD1620 |
|---|---|
| Flight time | 0h 41m |
| Altitude | 28000 |
| Route | ERUG1A ERUGU UZ61 NEKAL UZ77 OBDOL |
| Aircraft | B738/M-SDE2E3FGHIRWXY/LB1 |
Departure
| Time | 2026-04-23 02:31 |
|---|---|
| Airport | Pinto Martins International Airport (SBFZ) |
Arrival
| Time | 2026-04-23 03:13 |
|---|---|
| Airport | Orlando Bezerra de Menezes Airport (SBJU) |
| Time | Latitude | Longitude | Altitude | Speed | Heading |
|---|---|---|---|---|---|
| 2026-04-23 02:11 | -3.77809 | -38.53962 | 115 ft | 0 kts | 201° |
| 2026-04-23 02:21 | -3.77808 | -38.53962 | 90 ft | 2 kts | 201° |
| 2026-04-23 02:22 | -3.77784 | -38.53951 | 91 ft | 4 kts | 208° |
| 2026-04-23 02:22 | -3.77762 | -38.53937 | 93 ft | 4 kts | 223° |
| 2026-04-23 02:22 | -3.77748 | -38.53917 | 91 ft | 4 kts | 270° |
| 2026-04-23 02:22 | -3.77750 | -38.53908 | 90 ft | 1 kts | 303° |
| 2026-04-23 02:28 | -3.77733 | -38.53937 | 92 ft | 9 kts | 299° |
| 2026-04-23 02:28 | -3.77705 | -38.53993 | 91 ft | 9 kts | 290° |
| 2026-04-23 02:28 | -3.77688 | -38.54052 | 90 ft | 9 kts | 286° |
| 2026-04-23 02:28 | -3.77675 | -38.54108 | 90 ft | 8 kts | 282° |
| 2026-04-23 02:29 | -3.77660 | -38.54173 | 91 ft | 15 kts | 286° |
| 2026-04-23 02:29 | -3.77628 | -38.54283 | 92 ft | 16 kts | 285° |
| 2026-04-23 02:29 | -3.77586 | -38.54363 | 90 ft | 12 kts | 322° |
| 2026-04-23 02:29 | -3.77507 | -38.54382 | 90 ft | 10 kts | 354° |
| 2026-04-23 02:30 | -3.77447 | -38.54379 | 93 ft | 8 kts | 9° |
| 2026-04-23 02:30 | -3.77382 | -38.54357 | 92 ft | 15 kts | 34° |
| 2026-04-23 02:30 | -3.77372 | -38.54232 | 93 ft | 43 kts | 104° |
| 2026-04-23 02:30 | -3.77535 | -38.53622 | 91 ft | 135 kts | 105° |
| 2026-04-23 02:31 | -3.77834 | -38.52475 | 308 ft | 196 kts | 104° |
| 2026-04-23 02:31 | -3.78193 | -38.51109 | 1231 ft | 210 kts | 105° |
| 2026-04-23 02:31 | -3.78546 | -38.49646 | 2057 ft | 222 kts | 101° |
| 2026-04-23 02:31 | -3.79016 | -38.48130 | 2700 ft | 240 kts | 121° |
| 2026-04-23 02:32 | -3.80291 | -38.47038 | 3169 ft | 255 kts | 159° |
| 2026-04-23 02:32 | -3.82065 | -38.46949 | 3948 ft | 262 kts | 191° |
| 2026-04-23 02:32 | -3.83838 | -38.47366 | 4814 ft | 263 kts | 189° |
| 2026-04-23 02:32 | -3.85649 | -38.47719 | 5521 ft | 267 kts | 187° |
| 2026-04-23 02:33 | -3.87480 | -38.48016 | 5891 ft | 268 kts | 185° |
| 2026-04-23 02:33 | -3.89339 | -38.48272 | 5979 ft | 269 kts | 184° |
| 2026-04-23 02:33 | -3.91198 | -38.48496 | 5998 ft | 269 kts | 184° |
| 2026-04-23 02:33 | -3.93060 | -38.48705 | 6005 ft | 269 kts | 183° |
| 2026-04-23 02:34 | -3.94923 | -38.48909 | 6009 ft | 270 kts | 183° |
| 2026-04-23 02:34 | -3.96764 | -38.49111 | 6013 ft | 270 kts | 184° |
| 2026-04-23 02:34 | -3.98626 | -38.49468 | 6221 ft | 276 kts | 191° |
| 2026-04-23 02:34 | -4.00491 | -38.49945 | 7021 ft | 276 kts | 192° |
| 2026-04-23 02:35 | -4.02352 | -38.50438 | 7797 ft | 278 kts | 192° |
| 2026-04-23 02:35 | -4.04239 | -38.50936 | 8505 ft | 283 kts | 192° |
| 2026-04-23 02:35 | -4.06151 | -38.51436 | 9230 ft | 287 kts | 192° |
| 2026-04-23 02:35 | -4.08103 | -38.51941 | 9944 ft | 291 kts | 192° |
| 2026-04-23 02:36 | -4.10092 | -38.52453 | 10399 ft | 305 kts | 192° |
| 2026-04-23 02:36 | -4.12230 | -38.52998 | 10550 ft | 328 kts | 192° |
| 2026-04-23 02:36 | -4.14507 | -38.53578 | 10753 ft | 346 kts | 192° |
| 2026-04-23 02:36 | -4.16842 | -38.54173 | 11218 ft | 354 kts | 192° |
| 2026-04-23 02:37 | -4.19245 | -38.54785 | 11806 ft | 358 kts | 192° |
| 2026-04-23 02:37 | -4.21669 | -38.55402 | 12422 ft | 362 kts | 192° |
| 2026-04-23 02:37 | -4.24125 | -38.56027 | 13030 ft | 367 kts | 192° |
| 2026-04-23 02:37 | -4.26612 | -38.56659 | 13633 ft | 371 kts | 192° |
| 2026-04-23 02:38 | -4.29138 | -38.57301 | 14197 ft | 375 kts | 192° |
| 2026-04-23 02:38 | -4.31677 | -38.57947 | 14784 ft | 378 kts | 192° |
| 2026-04-23 02:38 | -4.34241 | -38.58598 | 15391 ft | 381 kts | 192° |
| 2026-04-23 02:38 | -4.36821 | -38.59254 | 15985 ft | 384 kts | 192° |
| 2026-04-23 02:39 | -4.39422 | -38.59915 | 16549 ft | 388 kts | 192° |
| 2026-04-23 02:39 | -4.42007 | -38.60572 | 17120 ft | 391 kts | 192° |
| 2026-04-23 02:39 | -4.44659 | -38.61246 | 17681 ft | 395 kts | 192° |
| 2026-04-23 02:39 | -4.47340 | -38.61927 | 18232 ft | 398 kts | 192° |
| 2026-04-23 02:40 | -4.50022 | -38.62655 | 18700 ft | 402 kts | 195° |
| 2026-04-23 02:40 | -4.52679 | -38.63544 | 19177 ft | 405 kts | 198° |
| 2026-04-23 02:40 | -4.55344 | -38.64516 | 19652 ft | 408 kts | 199° |
| 2026-04-23 02:40 | -4.58016 | -38.65509 | 20116 ft | 411 kts | 199° |
| 2026-04-23 02:41 | -4.60707 | -38.66502 | 20566 ft | 414 kts | 199° |
| 2026-04-23 02:41 | -4.63423 | -38.67492 | 21016 ft | 417 kts | 199° |
| 2026-04-23 02:41 | -4.66122 | -38.68464 | 21459 ft | 419 kts | 199° |
| 2026-04-23 02:41 | -4.68877 | -38.69450 | 21899 ft | 422 kts | 199° |
| 2026-04-23 02:42 | -4.71652 | -38.70439 | 22331 ft | 425 kts | 199° |
| 2026-04-23 02:42 | -4.74443 | -38.71433 | 22760 ft | 428 kts | 199° |
| 2026-04-23 02:42 | -4.77252 | -38.72433 | 23156 ft | 430 kts | 199° |
| 2026-04-23 02:42 | -4.80086 | -38.73443 | 23561 ft | 433 kts | 199° |
| 2026-04-23 02:43 | -4.82933 | -38.74457 | 23882 ft | 435 kts | 199° |
| 2026-04-23 02:43 | -4.85791 | -38.75476 | 24239 ft | 437 kts | 199° |
| 2026-04-23 02:43 | -4.88662 | -38.76500 | 24573 ft | 439 kts | 199° |
| 2026-04-23 02:43 | -4.91545 | -38.77530 | 24902 ft | 441 kts | 199° |
| 2026-04-23 02:44 | -4.94398 | -38.78553 | 25228 ft | 443 kts | 199° |
| 2026-04-23 02:44 | -4.97298 | -38.79596 | 25596 ft | 443 kts | 199° |
| 2026-04-23 02:44 | -5.00191 | -38.80637 | 26067 ft | 441 kts | 199° |
| 2026-04-23 02:44 | -5.03071 | -38.81674 | 26568 ft | 438 kts | 199° |
| 2026-04-23 02:45 | -5.05932 | -38.82704 | 27037 ft | 437 kts | 199° |
| 2026-04-23 02:45 | -5.08798 | -38.83735 | 27476 ft | 437 kts | 199° |
| 2026-04-23 02:45 | -5.11653 | -38.84762 | 27906 ft | 437 kts | 199° |
| 2026-04-23 02:45 | -5.14488 | -38.85782 | 27933 ft | 439 kts | 199° |
| 2026-04-23 02:46 | -5.17347 | -38.86810 | 27951 ft | 435 kts | 199° |
| 2026-04-23 02:46 | -5.20192 | -38.87834 | 27958 ft | 435 kts | 199° |
| 2026-04-23 02:46 | -5.23047 | -38.88861 | 27969 ft | 436 kts | 199° |
| 2026-04-23 02:46 | -5.25898 | -38.89887 | 27969 ft | 436 kts | 199° |
| 2026-04-23 02:47 | -5.28757 | -38.90916 | 27963 ft | 437 kts | 199° |
| 2026-04-23 02:47 | -5.31618 | -38.91945 | 27960 ft | 437 kts | 199° |
| 2026-04-23 02:47 | -5.34479 | -38.92975 | 27959 ft | 437 kts | 199° |
| 2026-04-23 02:47 | -5.37341 | -38.94006 | 27957 ft | 437 kts | 199° |
| 2026-04-23 02:48 | -5.40204 | -38.95037 | 27955 ft | 437 kts | 199° |
| 2026-04-23 02:48 | -5.43026 | -38.96053 | 27957 ft | 437 kts | 199° |
| 2026-04-23 02:48 | -5.45880 | -38.97081 | 27955 ft | 436 kts | 199° |
| 2026-04-23 02:48 | -5.48742 | -38.98111 | 27956 ft | 436 kts | 199° |
| 2026-04-23 02:49 | -5.51592 | -38.99138 | 27960 ft | 436 kts | 199° |
| 2026-04-23 02:49 | -5.54444 | -39.00166 | 27955 ft | 436 kts | 199° |
| 2026-04-23 02:49 | -5.57299 | -39.01194 | 27957 ft | 435 kts | 199° |
| 2026-04-23 02:49 | -5.60147 | -39.02220 | 27958 ft | 435 kts | 199° |
| 2026-04-23 02:50 | -5.62998 | -39.03248 | 27957 ft | 435 kts | 199° |
| 2026-04-23 02:50 | -5.65843 | -39.04273 | 27958 ft | 435 kts | 199° |
| 2026-04-23 02:50 | -5.68692 | -39.05300 | 27955 ft | 435 kts | 199° |
| 2026-04-23 02:50 | -5.71505 | -39.06314 | 27957 ft | 435 kts | 199° |
| 2026-04-23 02:51 | -5.74330 | -39.07301 | 27939 ft | 424 kts | 195° |
| 2026-04-23 02:51 | -5.77188 | -39.07925 | 27947 ft | 418 kts | 186° |
| 2026-04-23 02:51 | -5.80075 | -39.08091 | 27965 ft | 416 kts | 180° |
| 2026-04-23 02:51 | -5.82980 | -39.08134 | 27961 ft | 418 kts | 180° |
| 2026-04-23 02:52 | -5.85890 | -39.08161 | 27642 ft | 420 kts | 180° |
| 2026-04-23 02:52 | -5.88757 | -39.08191 | 27275 ft | 414 kts | 180° |
| 2026-04-23 02:52 | -5.91659 | -39.08231 | 26833 ft | 411 kts | 180° |
| 2026-04-23 02:52 | -5.94469 | -39.08277 | 26410 ft | 408 kts | 180° |
| 2026-04-23 02:53 | -5.97300 | -39.08329 | 25973 ft | 405 kts | 180° |
| 2026-04-23 02:53 | -6.00108 | -39.08384 | 25527 ft | 403 kts | 181° |
| 2026-04-23 02:53 | -6.02905 | -39.08440 | 25077 ft | 401 kts | 181° |
| 2026-04-23 02:53 | -6.05692 | -39.08496 | 24627 ft | 400 kts | 181° |
| 2026-04-23 02:54 | -6.08473 | -39.08552 | 24182 ft | 399 kts | 181° |
| 2026-04-23 02:54 | -6.11242 | -39.08608 | 23738 ft | 398 kts | 181° |
| 2026-04-23 02:54 | -6.14005 | -39.08664 | 23239 ft | 397 kts | 181° |
| 2026-04-23 02:54 | -6.16760 | -39.08720 | 22781 ft | 394 kts | 181° |
| 2026-04-23 02:55 | -6.19494 | -39.08775 | 22315 ft | 391 kts | 181° |
| 2026-04-23 02:55 | -6.22174 | -39.08829 | 21886 ft | 389 kts | 180° |
| 2026-04-23 02:55 | -6.24897 | -39.08883 | 21456 ft | 386 kts | 180° |
| 2026-04-23 02:55 | -6.27538 | -39.08936 | 21028 ft | 383 kts | 180° |
| 2026-04-23 02:56 | -6.30194 | -39.08990 | 20608 ft | 381 kts | 180° |
| 2026-04-23 02:56 | -6.32835 | -39.09043 | 20184 ft | 378 kts | 180° |
| 2026-04-23 02:56 | -6.35459 | -39.09095 | 19752 ft | 377 kts | 180° |
| 2026-04-23 02:56 | -6.38076 | -39.09147 | 19251 ft | 377 kts | 180° |
| 2026-04-23 02:57 | -6.40698 | -39.09199 | 18810 ft | 376 kts | 180° |
| 2026-04-23 02:57 | -6.43316 | -39.09250 | 18370 ft | 375 kts | 179° |
| 2026-04-23 02:57 | -6.45907 | -39.09301 | 17906 ft | 373 kts | 179° |
| 2026-04-23 02:57 | -6.48497 | -39.09352 | 17479 ft | 370 kts | 179° |
| 2026-04-23 02:58 | -6.51022 | -39.09401 | 17073 ft | 366 kts | 179° |
| 2026-04-23 02:58 | -6.53561 | -39.09451 | 16664 ft | 363 kts | 179° |
| 2026-04-23 02:58 | -6.56074 | -39.09501 | 16259 ft | 360 kts | 179° |
| 2026-04-23 02:58 | -6.58574 | -39.09550 | 15863 ft | 357 kts | 179° |
| 2026-04-23 02:59 | -6.61054 | -39.09598 | 15456 ft | 355 kts | 179° |
| 2026-04-23 02:59 | -6.63509 | -39.09647 | 15062 ft | 353 kts | 179° |
| 2026-04-23 02:59 | -6.65953 | -39.09694 | 14667 ft | 351 kts | 179° |
| 2026-04-23 02:59 | -6.68368 | -39.09742 | 14272 ft | 349 kts | 179° |
| 2026-04-23 03:00 | -6.70789 | -39.09789 | 13864 ft | 348 kts | 179° |
| 2026-04-23 03:00 | -6.73207 | -39.09837 | 13445 ft | 346 kts | 179° |
| 2026-04-23 03:00 | -6.75570 | -39.09883 | 13030 ft | 343 kts | 179° |
| 2026-04-23 03:00 | -6.77990 | -39.09931 | 12588 ft | 342 kts | 179° |
| 2026-04-23 03:01 | -6.80324 | -39.09977 | 12196 ft | 340 kts | 179° |
| 2026-04-23 03:01 | -6.82686 | -39.10023 | 11801 ft | 337 kts | 179° |
| 2026-04-23 03:01 | -6.85013 | -39.10069 | 11418 ft | 334 kts | 179° |
| 2026-04-23 03:01 | -6.87325 | -39.10114 | 11035 ft | 331 kts | 179° |
| 2026-04-23 03:02 | -6.89603 | -39.10160 | 10632 ft | 323 kts | 179° |
| 2026-04-23 03:02 | -6.91799 | -39.10204 | 10434 ft | 306 kts | 179° |
| 2026-04-23 03:02 | -6.93870 | -39.10344 | 10270 ft | 292 kts | 191° |
| 2026-04-23 03:02 | -6.95671 | -39.11173 | 10143 ft | 283 kts | 214° |
| 2026-04-23 03:03 | -6.97007 | -39.12579 | 10028 ft | 274 kts | 233° |
| 2026-04-23 03:03 | -6.97817 | -39.14294 | 9801 ft | 276 kts | 251° |
| 2026-04-23 03:03 | -6.98302 | -39.16169 | 9521 ft | 280 kts | 254° |
| 2026-04-23 03:03 | -6.98748 | -39.18111 | 9261 ft | 291 kts | 255° |
| 2026-04-23 03:04 | -6.99196 | -39.20092 | 8950 ft | 294 kts | 255° |
| 2026-04-23 03:04 | -6.99653 | -39.22095 | 8638 ft | 293 kts | 255° |
| 2026-04-23 03:04 | -7.00117 | -39.24093 | 8331 ft | 292 kts | 255° |
| 2026-04-23 03:04 | -7.00582 | -39.26078 | 8033 ft | 292 kts | 255° |
| 2026-04-23 03:05 | -7.01053 | -39.28068 | 7693 ft | 293 kts | 255° |
| 2026-04-23 03:05 | -7.01527 | -39.30064 | 7385 ft | 292 kts | 255° |
| 2026-04-23 03:05 | -7.01999 | -39.32047 | 7099 ft | 291 kts | 255° |
| 2026-04-23 03:05 | -7.02462 | -39.34001 | 7028 ft | 285 kts | 255° |
| 2026-04-23 03:06 | -7.02927 | -39.35946 | 6579 ft | 292 kts | 255° |
| 2026-04-23 03:06 | -7.03404 | -39.37940 | 6229 ft | 291 kts | 254° |
| 2026-04-23 03:06 | -7.03869 | -39.39891 | 5913 ft | 284 kts | 254° |
| 2026-04-23 03:06 | -7.04324 | -39.41796 | 5630 ft | 274 kts | 252° |
| 2026-04-23 03:07 | -7.05134 | -39.43444 | 5504 ft | 254 kts | 225° |
| 2026-04-23 03:07 | -7.06497 | -39.44500 | 5175 ft | 250 kts | 201° |
| 2026-04-23 03:07 | -7.08097 | -39.44966 | 5057 ft | 225 kts | 182° |
| 2026-04-23 03:07 | -7.09556 | -39.45028 | 5005 ft | 203 kts | 177° |
| 2026-04-23 03:08 | -7.10948 | -39.45031 | 4962 ft | 199 kts | 176° |
| 2026-04-23 03:08 | -7.12347 | -39.45032 | 4705 ft | 202 kts | 177° |
| 2026-04-23 03:08 | -7.13737 | -39.44984 | 4442 ft | 197 kts | 165° |
| 2026-04-23 03:08 | -7.14816 | -39.44233 | 4290 ft | 192 kts | 126° |
| 2026-04-23 03:09 | -7.15556 | -39.43106 | 4263 ft | 193 kts | 121° |
| 2026-04-23 03:09 | -7.16189 | -39.41920 | 4101 ft | 194 kts | 120° |
| 2026-04-23 03:09 | -7.16736 | -39.40730 | 3843 ft | 182 kts | 114° |
| 2026-04-23 03:09 | -7.17172 | -39.39581 | 3644 ft | 164 kts | 112° |
| 2026-04-23 03:10 | -7.17562 | -39.38534 | 3412 ft | 160 kts | 114° |
| 2026-04-23 03:10 | -7.17956 | -39.37485 | 3342 ft | 161 kts | 114° |
| 2026-04-23 03:10 | -7.18350 | -39.36435 | 3184 ft | 158 kts | 114° |
| 2026-04-23 03:10 | -7.18738 | -39.35402 | 2977 ft | 158 kts | 113° |
| 2026-04-23 03:11 | -7.19124 | -39.34365 | 2770 ft | 159 kts | 112° |
| 2026-04-23 03:11 | -7.19529 | -39.33330 | 2630 ft | 159 kts | 114° |
| 2026-04-23 03:11 | -7.19919 | -39.32273 | 2405 ft | 164 kts | 111° |
| 2026-04-23 03:11 | -7.20310 | -39.31181 | 2144 ft | 166 kts | 112° |
| 2026-04-23 03:12 | -7.20710 | -39.30106 | 1867 ft | 167 kts | 112° |
| 2026-04-23 03:12 | -7.21123 | -39.29026 | 1631 ft | 163 kts | 114° |
| 2026-04-23 03:12 | -7.21519 | -39.27974 | 1459 ft | 160 kts | 112° |
| 2026-04-23 03:12 | -7.21888 | -39.27003 | 1346 ft | 109 kts | 111° |
| 2026-04-23 03:13 | -7.22030 | -39.26632 | 1343 ft | 28 kts | 111° |
| 2026-04-23 03:13 | -7.22097 | -39.26452 | 1341 ft | 27 kts | 110° |
| 2026-04-23 03:13 | -7.22160 | -39.26283 | 1344 ft | 25 kts | 111° |
| 2026-04-23 03:13 | -7.22219 | -39.26155 | 1345 ft | 6 kts | 95° |
| 2026-04-23 03:14 | -7.22217 | -39.26146 | 1344 ft | 1 kts | 66° |
| 2026-04-23 03:14 | -7.22212 | -39.26146 | 1346 ft | 1 kts | 8° |
| 2026-04-23 03:14 | -7.22203 | -39.26159 | 1346 ft | 6 kts | 299° |
| 2026-04-23 03:14 | -7.22185 | -39.26204 | 1347 ft | 8 kts | 291° |
| 2026-04-23 03:15 | -7.22165 | -39.26257 | 1344 ft | 9 kts | 291° |
| 2026-04-23 03:15 | -7.22145 | -39.26318 | 1344 ft | 10 kts | 287° |
| 2026-04-23 03:15 | -7.22124 | -39.26385 | 1342 ft | 10 kts | 287° |
| 2026-04-23 03:15 | -7.22103 | -39.26450 | 1342 ft | 10 kts | 290° |
| 2026-04-23 03:16 | -7.22077 | -39.26517 | 1346 ft | 12 kts | 291° |
| 2026-04-23 03:16 | -7.22045 | -39.26598 | 1345 ft | 13 kts | 291° |
| 2026-04-23 03:16 | -7.21968 | -39.26803 | 1343 ft | 16 kts | 291° |
| 2026-04-23 03:17 | -7.21931 | -39.26901 | 1347 ft | 14 kts | 291° |
| 2026-04-23 03:17 | -7.21898 | -39.26987 | 1348 ft | 12 kts | 291° |
| 2026-04-23 03:17 | -7.21861 | -39.27090 | 1345 ft | 18 kts | 289° |
| 2026-04-23 03:17 | -7.21819 | -39.27157 | 1347 ft | 0 kts | 347° |
| 2026-04-23 03:18 | -7.21816 | -39.27157 | 1346 ft | 0 kts | 352° |